createdAt,value
2022-10-29T00:02:39.430Z,101828.34
2022-10-29T00:05:42.251Z,101830.97
2022-10-29T00:08:46.568Z,101834.50
2022-10-29T00:11:49.372Z,101842.47
2022-10-29T00:14:52.139Z,101850.47
2022-10-29T00:17:55.148Z,101849.63
2022-10-29T00:21:02.123Z,101851.41
2022-10-29T00:24:07.368Z,101848.75
2022-10-29T00:27:10.319Z,101854.06
2022-10-29T00:30:14.341Z,101852.31
2022-10-29T00:36:27.948Z,101867.41
2022-10-29T00:39:33.156Z,101867.41
2022-10-29T00:42:35.931Z,101855.91
2022-10-29T00:45:43.054Z,101860.28
2022-10-29T00:48:49.829Z,101870.03
2022-10-29T00:51:53.643Z,101881.56
2022-10-29T00:55:00.881Z,101872.72
2022-10-29T00:58:04.416Z,101877.09
2022-10-29T01:01:07.319Z,101891.28
2022-10-29T01:04:11.899Z,101882.47
2022-10-29T01:07:14.798Z,101873.59
2022-10-29T01:10:26.952Z,101886.91
2022-10-29T01:13:43.881Z,101878.94
2022-10-29T01:16:52.010Z,101869.22
2022-10-29T01:20:26.387Z,101871.00
2022-10-29T01:23:57.005Z,101894.03
2022-10-29T01:27:29.493Z,101899.34
2022-10-29T01:31:06.467Z,101889.59
2022-10-29T01:34:18.309Z,101883.38
2022-10-29T01:37:29.649Z,101878.94
2022-10-29T01:40:36.114Z,101886.91
2022-10-29T01:43:45.913Z,101894.03
2022-10-29T01:46:56.343Z,101909.16
2022-10-29T01:50:03.344Z,101895.84
2022-10-29T01:53:07.609Z,101899.41
2022-10-29T01:56:10.546Z,101896.75
2022-10-29T01:59:23.297Z,101899.41
2022-10-29T02:02:56.166Z,101906.53
2022-10-29T02:06:08.076Z,101915.38
2022-10-29T02:09:18.002Z,101916.25
2022-10-29T02:12:25.285Z,101909.16
2022-10-29T02:15:34.760Z,101920.66
2022-10-29T02:18:43.435Z,101917.09
2022-10-29T02:21:46.235Z,101918.88
2022-10-29T02:24:49.022Z,101917.16
2022-10-29T02:27:51.799Z,101919.81
2022-10-29T02:30:54.561Z,101909.16
2022-10-29T02:33:58.822Z,101913.59
2022-10-29T02:37:01.604Z,101911.00
2022-10-29T02:40:05.228Z,101912.72
2022-10-29T02:43:08.034Z,101917.16
2022-10-29T02:46:12.397Z,101911.00
2022-10-29T02:49:16.604Z,101923.38
2022-10-29T02:52:19.397Z,101927.81
2022-10-29T02:55:22.311Z,101935.78
2022-10-29T02:58:25.108Z,101946.44
2022-10-29T03:01:28.005Z,101942.84
2022-10-29T03:04:32.247Z,101943.78
2022-10-29T03:07:36.833Z,101948.16
2022-10-29T03:10:39.599Z,101950.88
2022-10-29T03:13:42.447Z,101950.00
2022-10-29T03:16:45.259Z,101950.88
2022-10-29T03:19:49.431Z,101947.34
2022-10-29T03:22:52.232Z,101951.78
2022-10-29T03:25:56.702Z,101950.94
2022-10-29T03:28:59.503Z,101942.94
2022-10-29T03:32:02.304Z,101945.63
2022-10-29T03:35:07.702Z,101942.94
2022-10-29T03:38:10.468Z,101950.88
2022-10-29T03:41:13.276Z,101952.59
2022-10-29T03:44:16.089Z,101941.13
2022-10-29T03:47:18.940Z,101944.69
2022-10-29T03:50:23.091Z,101942.00
2022-10-29T03:53:26.698Z,101943.78
2022-10-29T03:56:29.526Z,101952.66
2022-10-29T03:59:32.296Z,101964.25
2022-10-29T04:02:35.249Z,101969.56
2022-10-29T04:05:39.485Z,101969.56
2022-10-29T04:08:42.816Z,101968.69
2022-10-29T04:11:45.604Z,101964.25
2022-10-29T04:14:48.465Z,101960.66
2022-10-29T04:17:52.001Z,101971.31
2022-10-29T04:28:41.471Z,101980.16
2022-10-29T04:31:12.622Z,101979.28
2022-10-29T04:34:15.417Z,101984.63
2022-10-29T04:37:19.535Z,101974.91
2022-10-29T04:40:24.353Z,101971.34
2022-10-29T04:43:27.596Z,101967.81
2022-10-29T04:46:30.346Z,101968.69
2022-10-29T04:49:33.191Z,101964.25
2022-10-29T04:52:37.395Z,101973.13
2022-10-29T04:55:41.076Z,101973.13
2022-10-29T04:58:43.891Z,101974.91
2022-10-29T05:01:46.671Z,101975.75
2022-10-29T05:04:49.463Z,101975.75
2022-10-29T05:07:59.271Z,101975.75
2022-10-29T05:11:03.412Z,101981.94
2022-10-29T05:14:06.388Z,101982.88
2022-10-29T05:17:09.275Z,101991.72
2022-10-29T05:20:12.717Z,101985.56
2022-10-29T05:23:16.854Z,101974.91
2022-10-29T05:26:19.619Z,101978.47
2022-10-29T05:29:22.476Z,101978.47
2022-10-29T05:32:25.945Z,101982.06
2022-10-29T05:35:29.056Z,101978.47
2022-10-29T05:38:34.720Z,101982.06
2022-10-29T05:41:37.582Z,101979.34
2022-10-29T05:44:41.285Z,101985.56
2022-10-29T05:47:45.183Z,101982.88
2022-10-29T05:50:50.415Z,101984.63
2022-10-29T05:53:54.674Z,101981.06
2022-10-29T05:56:59.603Z,101974.91
2022-10-29T06:00:02.445Z,101968.69
2022-10-29T06:03:18.630Z,101974.91
2022-10-29T06:06:22.096Z,101967.81
2022-10-29T06:09:27.388Z,101978.47
2022-10-29T06:12:34.830Z,101987.34
2022-10-29T06:15:39.034Z,101998.88
2022-10-29T06:18:42.027Z,101999.75
2022-10-29T06:21:44.801Z,101993.53
2022-10-29T06:24:49.071Z,102003.25
2022-10-29T06:28:00.764Z,102006.81
2022-10-29T06:31:03.927Z,102005.91
2022-10-29T06:34:06.824Z,102021.91
2022-10-29T06:37:09.657Z,102029.88
2022-10-29T06:40:13.948Z,102030.75
2022-10-29T06:43:16.818Z,102032.53
2022-10-29T06:46:19.640Z,102040.53
2022-10-29T06:49:22.448Z,102040.53
2022-10-29T06:52:25.433Z,102045.84
2022-10-29T06:55:29.947Z,102039.66
2022-10-29T06:58:32.760Z,102033.47
2022-10-29T07:01:36.246Z,102039.66
2022-10-29T07:04:39.427Z,102040.53
2022-10-29T07:07:42.852Z,102027.16
2022-10-29T07:10:51.222Z,102030.69
2022-10-29T07:13:54.072Z,102029.84
2022-10-29T07:16:56.882Z,102033.38
2022-10-29T07:20:00.862Z,102033.38
2022-10-29T07:23:04.222Z,102036.97
2022-10-29T07:26:08.529Z,102050.28
2022-10-29T07:29:12.277Z,102056.50
2022-10-29T07:32:15.562Z,102053.84
2022-10-29T07:35:19.741Z,102057.41
2022-10-29T07:38:22.542Z,102065.38
2022-10-29T07:41:26.801Z,102064.50
2022-10-29T07:44:29.592Z,102071.59
2022-10-29T07:47:32.609Z,102068.00
2022-10-29T07:50:37.378Z,102081.31
2022-10-29T07:53:41.331Z,102080.41
2022-10-29T07:56:47.749Z,102076.84
2022-10-29T07:59:51.999Z,102087.50
2022-10-29T08:02:55.866Z,102083.97
2022-10-29T08:05:58.872Z,102083.09
2022-10-29T08:09:01.786Z,102094.63
2022-10-29T08:12:07.122Z,102095.56
2022-10-29T08:15:10.537Z,102099.94
2022-10-29T08:18:17.370Z,102085.75
2022-10-29T08:21:20.521Z,102086.69
2022-10-29T08:24:23.514Z,102086.63
2022-10-29T08:27:28.032Z,102081.31
2022-10-29T08:30:31.064Z,102090.19
2022-10-29T08:33:33.943Z,102095.44
2022-10-29T08:36:37.566Z,102098.13
2022-10-29T08:39:40.529Z,102104.31
2022-10-29T08:42:54.582Z,102091.00
2022-10-29T08:46:00.158Z,102092.78
2022-10-29T08:49:07.267Z,102103.44
2022-10-29T08:52:19.817Z,102107.91
2022-10-29T08:55:28.607Z,102111.44
2022-10-29T08:58:38.243Z,102107.03
2022-10-29T09:01:42.521Z,102102.59
2022-10-29T09:04:45.574Z,102097.28
2022-10-29T09:08:02.626Z,102104.38
2022-10-29T09:11:19.548Z,102111.44
2022-10-29T09:14:37.349Z,102118.50
2022-10-29T09:17:51.721Z,102120.25
2022-10-29T09:21:02.977Z,102114.06
2022-10-29T09:24:14.418Z,102115.84
2022-10-29T09:27:23.514Z,102118.50
2022-10-29T09:30:30.611Z,102118.50
2022-10-29T09:33:33.461Z,102123.84
2022-10-29T09:36:36.324Z,102126.50
2022-10-29T09:39:43.115Z,102129.16
2022-10-29T09:42:48.400Z,102114.09
2022-10-29T09:45:58.720Z,102108.75
2022-10-29T09:49:11.150Z,102101.66
2022-10-29T09:52:19.110Z,102094.56
2022-10-29T09:55:25.297Z,102098.94
2022-10-29T09:58:29.288Z,102094.50
2022-10-29T10:01:33.568Z,102094.50
2022-10-29T10:04:41.938Z,102106.03
2022-10-29T10:08:06.361Z,102095.38
2022-10-29T10:11:09.470Z,102100.72
2022-10-29T10:14:18.746Z,102091.84
2022-10-29T10:17:22.932Z,102088.28
2022-10-29T10:20:32.892Z,102088.28
2022-10-29T10:23:44.894Z,102095.44
2022-10-29T10:26:47.772Z,102099.88
2022-10-29T10:30:12.484Z,102105.16
2022-10-29T10:33:27.181Z,102096.28
2022-10-29T10:36:30.839Z,102104.25
2022-10-29T10:39:39.814Z,102097.09
2022-10-29T10:42:47.488Z,102100.72
2022-10-29T10:45:56.178Z,102097.09
2022-10-29T10:49:04.295Z,102091.78
2022-10-29T10:52:19.478Z,102091.78
2022-10-29T10:55:27.248Z,102086.47
2022-10-29T10:58:36.673Z,102074.06
2022-10-29T11:01:43.688Z,102075.84
2022-10-29T11:04:54.342Z,102074.06
2022-10-29T11:08:05.799Z,102067.00
2022-10-29T11:11:13.667Z,102074.06
2022-10-29T11:14:24.608Z,102068.75
2022-10-29T11:17:30.244Z,102062.50
2022-10-29T11:20:37.423Z,102060.72
2022-10-29T11:23:50.072Z,102045.59
2022-10-29T11:26:59.441Z,102048.28
2022-10-29T11:30:07.760Z,102038.50
2022-10-29T11:33:21.645Z,102043.84
2022-10-29T11:36:31.039Z,102055.38
2022-10-29T11:39:44.772Z,102054.50
2022-10-29T11:42:47.571Z,102055.38
2022-10-29T11:46:00.053Z,102058.03
2022-10-29T11:49:14.880Z,102054.50
2022-10-29T11:52:33.263Z,102051.00
2022-10-29T11:55:46.648Z,102043.84
2022-10-29T11:58:55.467Z,102042.94
2022-10-29T12:02:09.824Z,102026.97
2022-10-29T12:05:18.384Z,102018.94
2022-10-29T12:08:38.683Z,102015.38
2022-10-29T12:11:46.294Z,102016.25
2022-10-29T12:14:55.311Z,102004.72
2022-10-29T12:18:05.603Z,101993.22
2022-10-29T12:21:16.685Z,101989.69
2022-10-29T12:24:33.896Z,101983.47
2022-10-29T12:27:46.336Z,101976.38
2022-10-29T12:31:04.221Z,101981.69
2022-10-29T12:34:14.322Z,101987.03
2022-10-29T12:37:25.731Z,101993.22
2022-10-29T12:40:33.816Z,101983.41
2022-10-29T12:43:40.250Z,101984.31
2022-10-29T12:46:48.090Z,101977.19
2022-10-29T12:50:02.710Z,101982.53
2022-10-29T12:53:14.267Z,101984.31
2022-10-29T12:56:19.261Z,101980.75
2022-10-29T12:59:34.502Z,101968.31
2022-10-29T13:02:47.250Z,101964.78
2022-10-29T13:05:50.095Z,101964.78
2022-10-29T13:08:57.579Z,101966.53
2022-10-29T13:12:03.867Z,101962.13
2022-10-29T13:15:15.363Z,101952.41
2022-10-29T13:18:23.781Z,101955.06
2022-10-29T13:22:15.299Z,101956.78
2022-10-29T13:25:51.894Z,101955.88
2022-10-29T13:28:56.064Z,101955.00
2022-10-29T13:32:04.864Z,101947.84
2022-10-29T13:35:43.025Z,101954.09
2022-10-29T13:39:07.368Z,101959.44
2022-10-29T13:42:13.959Z,101960.34
2022-10-29T13:45:17.124Z,101959.44
2022-10-29T13:48:26.278Z,101960.31
2022-10-29T13:51:38.005Z,101955.88
2022-10-29T13:54:43.698Z,101950.56
2022-10-29T13:58:03.305Z,101947.91
2022-10-29T14:01:10.255Z,101944.34
2022-10-29T14:04:23.708Z,101950.56
2022-10-29T14:07:34.843Z,101944.34
2022-10-29T14:10:46.112Z,101935.44
2022-10-29T14:13:51.200Z,101936.34
2022-10-29T14:17:15.469Z,101935.44
2022-10-29T14:20:24.298Z,101934.53
2022-10-29T14:23:29.484Z,101931.03
2022-10-29T14:26:35.063Z,101916.81
2022-10-29T14:29:38.360Z,101906.16
2022-10-29T14:32:41.560Z,101912.41
2022-10-29T14:35:45.055Z,101910.63
2022-10-29T14:38:52.694Z,101918.59
2022-10-29T14:41:56.766Z,101922.16
2022-10-29T14:45:03.459Z,101920.38
2022-10-29T14:48:10.636Z,101924.78
2022-10-29T14:51:20.075Z,101925.66
2022-10-29T14:54:27.357Z,101925.66
2022-10-29T14:57:34.760Z,101940.78
2022-10-29T15:00:38.286Z,101932.78
2022-10-29T15:03:41.515Z,101935.44
2022-10-29T15:06:44.327Z,101937.19
2022-10-29T15:09:48.468Z,101937.19
2022-10-29T15:12:52.556Z,101939.00
2022-10-29T15:16:00.624Z,101941.66
2022-10-29T15:19:03.478Z,101937.25
2022-10-29T15:22:09.703Z,101932.81
2022-10-29T15:25:26.051Z,101926.53
2022-10-29T15:28:30.863Z,101923.03
2022-10-29T15:31:44.086Z,101922.13
2022-10-29T15:34:49.534Z,101930.13
2022-10-29T15:37:53.299Z,101936.31
2022-10-29T15:41:31.769Z,101935.44
2022-10-29T15:44:37.988Z,101935.44
2022-10-29T15:47:42.553Z,101934.53
2022-10-29T15:50:47.480Z,101932.78
2022-10-29T15:53:50.456Z,101931.03
2022-10-29T15:56:54.628Z,101936.34
2022-10-29T15:59:57.484Z,101927.47
2022-10-29T16:03:11.466Z,101931.03
2022-10-29T16:06:16.824Z,101927.47
2022-10-29T16:09:21.800Z,101931.03
2022-10-29T16:12:26.502Z,101926.53
2022-10-29T16:15:29.357Z,101932.78
2022-10-29T16:18:32.182Z,101927.44
2022-10-29T16:21:35.800Z,101922.13
2022-10-29T16:24:38.593Z,101933.66
2022-10-29T16:27:43.876Z,101931.03
2022-10-29T16:30:55.075Z,101934.53
2022-10-29T16:34:00.075Z,101939.84
2022-10-29T16:37:02.849Z,101949.66
2022-10-29T16:40:06.854Z,101943.44
2022-10-29T16:43:11.464Z,101940.78
2022-10-29T16:46:14.807Z,101934.59
2022-10-29T16:49:17.615Z,101942.56
2022-10-29T16:52:21.832Z,101928.34
2022-10-29T16:55:27.365Z,101926.53
2022-10-29T16:58:31.619Z,101914.13
2022-10-29T17:01:34.404Z,101907.06
2022-10-29T17:04:37.253Z,101902.56
2022-10-29T17:07:40.214Z,101907.91
2022-10-29T17:10:43.069Z,101917.69
2022-10-29T17:13:47.222Z,101920.38
2022-10-29T17:16:50.070Z,101925.72
2022-10-29T17:19:53.794Z,101915.06
2022-10-29T17:22:56.608Z,101920.38
2022-10-29T17:26:00.088Z,101915.94
2022-10-29T17:29:04.421Z,101915.94
2022-10-29T17:32:08.800Z,101915.94
2022-10-29T17:35:11.614Z,101917.69
2022-10-29T17:38:14.523Z,101917.69
2022-10-29T17:41:17.334Z,101912.38
2022-10-29T17:44:21.535Z,101902.56
2022-10-29T17:47:24.442Z,101912.38
2022-10-29T17:50:27.890Z,101916.81
2022-10-29T17:53:32.342Z,101922.16
2022-10-29T17:56:35.102Z,101919.50
2022-10-29T17:59:39.231Z,101926.59
2022-10-29T18:02:42.189Z,101918.59
2022-10-29T18:05:45.226Z,101924.84
2022-10-29T18:08:48.053Z,101930.16
2022-10-29T18:11:51.188Z,101927.50
2022-10-29T18:14:55.317Z,101918.59
2022-10-29T18:17:59.965Z,101923.03
2022-10-29T18:21:02.788Z,101917.69
2022-10-29T18:24:06.266Z,101920.38
2022-10-29T18:27:09.026Z,101928.34
2022-10-29T18:30:13.808Z,101930.13
2022-10-29T18:33:16.612Z,101933.69
2022-10-29T18:36:19.437Z,101915.94
2022-10-29T18:39:22.223Z,101915.06
2022-10-29T18:42:25.021Z,101911.53
2022-10-29T18:45:29.194Z,101911.53
2022-10-29T18:48:32.786Z,101909.75
2022-10-29T18:51:35.603Z,101909.75
2022-10-29T18:54:38.496Z,101912.47
2022-10-29T18:57:41.271Z,101912.41
2022-10-29T19:00:45.895Z,101895.53
2022-10-29T19:03:50.590Z,101896.41
2022-10-29T19:06:55.061Z,101907.06
2022-10-29T19:09:57.835Z,101907.06
2022-10-29T19:13:00.623Z,101899.97
2022-10-29T19:16:06.251Z,101892.84
2022-10-29T19:19:12.664Z,101884.88
2022-10-29T19:22:15.451Z,101892.88
2022-10-29T19:25:18.250Z,101902.69
2022-10-29T19:28:21.079Z,101909.78
2022-10-29T19:31:27.217Z,101901.81
2022-10-29T19:34:30.027Z,101902.69
2022-10-29T19:37:32.811Z,101892.03
2022-10-29T19:40:35.732Z,101887.56
2022-10-29T19:43:38.988Z,101889.31
2022-10-29T19:46:43.425Z,101885.78
2022-10-29T19:49:46.331Z,101890.19
2022-10-29T19:52:50.854Z,101897.25
2022-10-29T19:55:53.898Z,101898.22
2022-10-29T19:58:56.660Z,101906.19
2022-10-29T20:02:01.102Z,101908.84
2022-10-29T20:05:04.899Z,101919.50
2022-10-29T20:08:11.370Z,101905.34
2022-10-29T20:11:17.582Z,101889.41
2022-10-29T20:14:22.167Z,101900.91
2022-10-29T20:17:31.896Z,101899.13
2022-10-29T20:20:34.735Z,101904.47
2022-10-29T20:23:38.098Z,101895.53
2022-10-29T20:26:40.857Z,101888.44
2022-10-29T20:29:43.685Z,101895.53
2022-10-29T20:32:48.996Z,101889.31
2022-10-29T20:35:54.243Z,101887.56
2022-10-29T20:38:57.232Z,101888.44
2022-10-29T20:42:00.434Z,101903.53
2022-10-29T20:45:03.227Z,101902.69
2022-10-29T20:48:07.839Z,101899.13
2022-10-29T20:51:11.580Z,101900.03
2022-10-29T20:54:14.479Z,101892.94
2022-10-29T20:57:17.266Z,101899.13
2022-10-29T21:00:20.139Z,101903.59
2022-10-29T21:03:24.269Z,101893.81
2022-10-29T21:06:27.060Z,101898.22
2022-10-29T21:09:29.867Z,101901.75
2022-10-29T21:12:32.635Z,101901.75
2022-10-29T21:15:36.651Z,101908.84
2022-10-29T21:18:41.729Z,101909.75
2022-10-29T21:21:44.649Z,101901.75
2022-10-29T21:24:47.432Z,101907.13
2022-10-29T21:27:54.417Z,101898.25
2022-10-29T21:30:57.384Z,101894.72
2022-10-29T21:34:01.653Z,101883.22
2022-10-29T21:37:04.423Z,101886.72
2022-10-29T21:40:08.343Z,101885.00
2022-10-29T21:43:11.133Z,101887.66
2022-10-29T21:46:13.960Z,101884.06
2022-10-29T21:49:18.115Z,101879.56
2022-10-29T21:52:20.865Z,101887.56
2022-10-29T21:55:23.663Z,101885.81
2022-10-29T21:58:27.378Z,101879.63
2022-10-29T22:01:30.242Z,101868.09
2022-10-29T22:04:34.429Z,101870.75
2022-10-29T22:07:37.309Z,101884.06
2022-10-29T22:10:40.552Z,101866.38
2022-10-29T22:13:43.321Z,101853.94
2022-10-29T22:16:46.089Z,101860.16
2022-10-29T22:19:50.476Z,101863.75
2022-10-29T22:22:53.269Z,101875.25
2022-10-29T22:25:56.042Z,101880.59
2022-10-29T22:28:59.000Z,101886.78
2022-10-29T22:32:01.752Z,101882.34
2022-10-29T22:35:06.466Z,101877.00
2022-10-29T22:38:09.236Z,101884.06
2022-10-29T22:41:13.457Z,101865.47
2022-10-29T22:44:16.231Z,101871.69
2022-10-29T22:47:19.033Z,101875.25
2022-10-29T22:50:23.169Z,101867.31
2022-10-29T22:53:25.945Z,101868.19
2022-10-29T22:56:30.689Z,101870.88
2022-10-29T22:59:33.461Z,101870.00
2022-10-29T23:02:36.351Z,101867.31
2022-10-29T23:05:40.577Z,101873.53
2022-10-29T23:08:44.510Z,101866.41
2022-10-29T23:11:47.533Z,101869.09
2022-10-29T23:14:50.320Z,101864.59
2022-10-29T23:17:54.060Z,101869.09
2022-10-29T23:21:02.666Z,101886.78
2022-10-29T23:24:05.979Z,101884.19
2022-10-29T23:27:08.773Z,101878.84
2022-10-29T23:30:12.769Z,101884.19
2022-10-29T23:33:15.530Z,101874.44
2022-10-29T23:36:21.559Z,101884.19
2022-10-29T23:39:24.316Z,101878.91
2022-10-29T23:42:27.084Z,101870.03
2022-10-29T23:45:29.848Z,101878.03
2022-10-29T23:48:32.870Z,101877.09
2022-10-29T23:51:37.034Z,101869.09
2022-10-29T23:54:39.818Z,101870.00
2022-10-29T23:57:42.583Z,101877.09
